Time;durP1;ratioP1;P1;durP2;ratioP2;P2;SDS_P1;SDS_P2;PMS_P1;PMS_P2;Temp;Humidity;BMP_temperature;BMP_pressure;BME280_temperature;BME280_humidity;BME280_pressure;Samples;Min_cycle;Max_cycle;Signal;HPM_P1;HPM_P2
2021/12/24 00:00:37;;;;;;;0.10;0.10;;;4.10;99.90;;;;;;5067054;28;20764;-70
2021/12/24 00:03:05;;;;;;;0.10;0.10;;;4.20;99.90;;;;;;5057734;28;20617;-70
2021/12/24 00:05:32;;;;;;;0.10;0.10;;;4.20;99.90;;;;;;5064734;28;20662;-70
2021/12/24 00:08:00;;;;;;;0.10;0.10;;;4.30;99.90;;;;;;5062999;28;20714;-70
2021/12/24 00:10:27;;;;;;;0.17;0.17;;;4.30;99.90;;;;;;5067503;28;20675;-70
2021/12/24 00:13:00;;;;;;;0.10;0.10;;;4.40;99.90;;;;;;5064349;28;20659;-70
2021/12/24 00:15:50;;;;;;;0.10;0.10;;;4.40;99.90;;;;;;5063927;28;20655;-70
2021/12/24 00:18:29;;;;;;;0.10;0.10;;;4.50;99.90;;;;;;5062635;28;21191;-70
2021/12/24 00:35:14;;;;;;;0.10;0.10;;;4.70;99.90;;;;;;5058597;28;20605;-71
2021/12/24 00:37:42;;;;;;;0.10;0.10;;;4.70;99.90;;;;;;5062516;28;20661;-71
2021/12/24 00:40:16;;;;;;;0.10;0.10;;;4.70;99.90;;;;;;5078381;28;20636;-71
2021/12/24 00:42:45;;;;;;;0.10;0.10;;;4.80;99.90;;;;;;5067686;28;20677;-70
2021/12/24 00:45:14;;;;;;;0.10;0.10;;;4.80;99.90;;;;;;5062091;28;20620;-70
2021/12/24 00:47:42;;;;;;;0.10;0.10;;;4.80;99.90;;;;;;5077513;28;20624;-71
2021/12/24 00:50:15;;;;;;;0.10;0.10;;;4.80;99.90;;;;;;5060284;28;20692;-71
2021/12/24 00:52:53;;;;;;;0.10;0.10;;;4.80;99.90;;;;;;5062172;28;21130;-71
2021/12/24 00:55:23;;;;;;;0.10;0.10;;;4.80;99.90;;;;;;5063233;28;20724;-70
2021/12/24 00:57:51;;;;;;;0.10;0.10;;;4.80;99.90;;;;;;5066200;28;20634;-69
2021/12/24 01:00:21;;;;;;;0.10;0.10;;;4.80;99.90;;;;;;5065429;28;20734;-70
2021/12/24 01:02:49;;;;;;;0.10;0.10;;;4.80;99.90;;;;;;5062354;28;20619;-69
2021/12/24 01:05:20;;;;;;;0.10;0.10;;;4.80;99.90;;;;;;5064261;28;20627;-69
2021/12/24 01:07:49;;;;;;;0.10;0.10;;;4.80;99.90;;;;;;5066795;28;20620;-69
2021/12/24 01:10:19;;;;;;;0.10;0.10;;;4.80;99.90;;;;;;5066025;28;20740;-69
2021/12/24 01:12:46;;;;;;;0.10;0.10;;;4.80;99.90;;;;;;5061608;28;20691;-69
2021/12/24 01:15:15;;;;;;;0.10;0.10;;;4.80;99.90;;;;;;5074658;28;20609;-70
2021/12/24 01:17:48;;;;;;;0.10;0.10;;;4.80;99.90;;;;;;5064642;28;20629;-69
2021/12/24 01:20:25;;;;;;;0.10;0.10;;;4.80;99.90;;;;;;5073276;28;20670;-70
2021/12/24 01:23:27;;;;;;;0.10;0.10;;;4.80;99.90;;;;;;5051159;28;20633;-70
2021/12/24 01:25:58;;;;;;;0.10;0.10;;;4.80;99.90;;;;;;5068976;28;20628;-70
2021/12/24 01:28:44;;;;;;;0.10;0.10;;;4.80;99.90;;;;;;5060497;28;20629;-70
2021/12/24 01:39:41;;;;;;;0.10;0.10;;;4.90;99.90;;;;;;5071403;28;20625;-70
2021/12/24 01:44:55;;;;;;;0.10;0.10;;;4.90;99.90;;;;;;5064323;28;20619;-70
2021/12/24 01:47:23;;;;;;;0.10;0.10;;;4.90;99.90;;;;;;5060460;28;20624;-71
2021/12/24 01:49:50;;;;;;;0.10;0.10;;;4.90;99.90;;;;;;5060530;28;20665;-71
2021/12/24 01:52:19;;;;;;;0.10;0.10;;;4.90;99.90;;;;;;5060006;28;20629;-71
2021/12/24 01:54:53;;;;;;;0.10;0.10;;;4.90;99.90;;;;;;5057719;28;20668;-71
2021/12/24 01:57:20;;;;;;;0.10;0.10;;;4.90;99.90;;;;;;5072195;28;20620;-72
2021/12/24 01:59:47;;;;;;;0.10;0.10;;;4.90;99.90;;;;;;5059187;28;20718;-71
2021/12/24 02:02:14;;;;;;;0.10;0.10;;;4.90;99.90;;;;;;5063249;28;20635;-71
2021/12/24 02:04:41;;;;;;;0.00;0.00;;;4.90;99.90;;;;;;5067422;28;20626;-72
2021/12/24 02:07:09;;;;;;;0.10;0.10;;;4.90;99.90;;;;;;5061976;28;20695;-71
2021/12/24 02:09:37;;;;;;;0.10;0.10;;;5.00;99.90;;;;;;5060731;28;20625;-71
2021/12/24 02:12:06;;;;;;;0.10;0.10;;;5.00;99.90;;;;;;5058562;28;20617;-72
2021/12/24 02:14:37;;;;;;;0.10;0.10;;;5.00;99.90;;;;;;5059307;28;20686;-71
2021/12/24 02:17:36;;;;;;;0.10;0.10;;;5.00;99.90;;;;;;5061629;28;20612;-71
2021/12/24 02:28:29;;;;;;;0.10;0.10;;;5.00;99.90;;;;;;5072399;28;20627;-71
2021/12/24 02:30:57;;;;;;;0.10;0.10;;;5.00;99.90;;;;;;5061355;28;20663;-71
2021/12/24 02:33:24;;;;;;;0.10;0.10;;;5.00;99.90;;;;;;5064513;28;20688;-71
2021/12/24 02:35:53;;;;;;;0.20;0.20;;;5.10;99.90;;;;;;5061957;28;20607;-71
2021/12/24 02:38:20;;;;;;;0.10;0.10;;;5.00;99.90;;;;;;5059374;28;20625;-72
2021/12/24 02:40:47;;;;;;;0.10;0.10;;;5.10;99.90;;;;;;5063489;28;20660;-72
2021/12/24 02:43:19;;;;;;;0.10;0.10;;;5.10;99.90;;;;;;5060620;28;20631;-72
2021/12/24 02:45:48;;;;;;;0.10;0.10;;;5.10;99.90;;;;;;5060099;28;21309;-72
2021/12/24 02:48:47;;;;;;;0.10;0.10;;;5.10;99.90;;;;;;5064927;28;20685;-71
2021/12/24 02:54:00;;;;;;;0.10;0.10;;;5.10;99.90;;;;;;5057802;28;20641;-72
2021/12/24 02:56:31;;;;;;;0.00;0.00;;;5.10;99.90;;;;;;5058303;28;20624;-72
2021/12/24 02:58:59;;;;;;;0.10;0.10;;;5.10;99.90;;;;;;5070528;28;20975;-70
2021/12/24 03:01:29;;;;;;;0.10;0.10;;;5.10;99.90;;;;;;5067580;28;20649;-70
2021/12/24 03:03:56;;;;;;;0.10;0.10;;;;;;;;;;5067089;28;20597;-69
2021/12/24 03:06:26;;;;;;;0.10;0.10;;;5.20;99.90;;;;;;5061075;28;20632;-70
2021/12/24 03:08:54;;;;;;;0.10;0.10;;;5.10;99.90;;;;;;5068512;28;20605;-70
2021/12/24 03:11:21;;;;;;;0.10;0.10;;;5.20;99.90;;;;;;5066904;28;20652;-69
2021/12/24 03:13:50;;;;;;;0.10;0.10;;;5.20;99.90;;;;;;5068732;28;20643;-69
2021/12/24 03:16:18;;;;;;;0.10;0.10;;;5.10;99.90;;;;;;5060062;28;20727;-69
2021/12/24 03:18:47;;;;;;;0.10;0.10;;;5.20;99.90;;;;;;5057789;28;20632;-70
2021/12/24 03:21:18;;;;;;;0.10;0.10;;;5.20;99.90;;;;;;5058250;28;20656;-69
2021/12/24 03:24:33;;;;;;;0.10;0.10;;;5.10;99.90;;;;;;5056682;28;20639;-69
2021/12/24 03:26:36;;;;;;;0.10;0.10;;;5.20;99.90;;;;;;5060157;28;20711;-69
2021/12/24 03:29:04;;;;;;;0.10;0.10;;;5.20;99.90;;;;;;5068554;28;20623;-69
2021/12/24 03:31:31;;;;;;;0.10;0.10;;;5.20;99.90;;;;;;5064481;28;20759;-69
2021/12/24 03:33:58;;;;;;;0.10;0.10;;;5.20;99.90;;;;;;5062881;28;20740;-69
2021/12/24 03:36:26;;;;;;;0.10;0.10;;;5.20;99.90;;;;;;5074950;28;20632;-70
2021/12/24 03:38:56;;;;;;;0.10;0.10;;;5.20;99.90;;;;;;5063104;28;20637;-69
2021/12/24 03:41:23;;;;;;;0.10;0.10;;;5.20;99.90;;;;;;5061988;28;20671;-69
2021/12/24 03:43:51;;;;;;;0.10;0.10;;;5.20;99.90;;;;;;5061145;28;20628;-69
2021/12/24 03:46:24;;;;;;;0.10;0.10;;;5.20;99.90;;;;;;5058419;28;20624;-69
2021/12/24 03:48:55;;;;;;;0.10;0.10;;;5.20;99.90;;;;;;5059827;28;20616;-69
2021/12/24 03:51:36;;;;;;;0.10;0.10;;;5.20;99.90;;;;;;5078071;28;20683;-69
2021/12/24 03:56:51;;;;;;;0.10;0.10;;;5.20;99.90;;;;;;5058408;28;21029;-69
2021/12/24 03:59:41;;;;;;;0.10;0.10;;;5.20;99.90;;;;;;5044746;28;21005;-70
2021/12/24 04:02:43;;;;;;;0.10;0.10;;;5.20;99.90;;;;;;5060669;28;20605;-69
2021/12/24 04:05:29;;;;;;;0.10;0.10;;;5.20;99.90;;;;;;5072050;28;20701;-69
2021/12/24 04:08:11;;;;;;;0.10;0.10;;;5.30;99.90;;;;;;5063586;28;20627;-69
2021/12/24 04:11:00;;;;;;;0.10;0.10;;;;;;;;;;5056564;28;20641;-69
2021/12/24 04:13:31;;;;;;;0.10;0.10;;;5.30;99.90;;;;;;5061974;28;20632;-69
2021/12/24 04:15:58;;;;;;;0.10;0.10;;;5.30;99.90;;;;;;5065232;28;20698;-70
2021/12/24 04:18:38;;;;;;;0.10;0.10;;;5.30;99.90;;;;;;5065229;28;20665;-70
2021/12/24 04:26:39;;;;;;;0.10;0.10;;;5.40;99.90;;;;;;5060525;28;20616;-70
2021/12/24 04:29:07;;;;;;;0.10;0.10;;;;;;;;;;5062301;28;20636;-70
2021/12/24 04:31:41;;;;;;;0.10;0.10;;;5.40;99.90;;;;;;5060225;28;20645;-71
2021/12/24 04:34:34;;;;;;;0.00;0.00;;;5.40;99.90;;;;;;5072284;28;20654;-71
2021/12/24 04:37:47;;;;;;;0.10;0.10;;;5.40;99.90;;;;;;5065180;28;20619;-71
2021/12/24 04:51:18;;;;;;;0.10;0.10;;;5.50;99.90;;;;;;5061796;28;20682;-71
2021/12/24 05:02:29;;;;;;;0.10;0.10;;;5.50;99.90;;;;;;5064269;28;20680;-70
2021/12/24 05:05:06;;;;;;;0.10;0.10;;;5.50;99.90;;;;;;5067063;28;20604;-71
2021/12/24 05:10:15;;;;;;;0.10;0.10;;;5.50;99.90;;;;;;5066561;28;20647;-70
2021/12/24 05:12:42;;;;;;;0.10;0.10;;;5.60;99.90;;;;;;5062019;28;20640;-70
2021/12/24 05:15:11;;;;;;;0.10;0.10;;;5.60;99.90;;;;;;5059559;28;20656;-70
2021/12/24 05:23:50;;;;;;;0.10;0.10;;;;;;;;;;5057781;28;20612;-69
2021/12/24 05:26:19;;;;;;;0.10;0.10;;;;;;;;;;5061138;28;20625;-69
2021/12/24 05:28:46;;;;;;;0.10;0.10;;;5.60;99.90;;;;;;5063379;28;20635;-69
2021/12/24 05:31:15;;;;;;;0.10;0.10;;;5.60;99.90;;;;;;5062934;28;20752;-69
2021/12/24 05:33:42;;;;;;;0.10;0.10;;;5.70;99.90;;;;;;5061942;28;20718;-69
2021/12/24 05:36:09;;;;;;;0.10;0.10;;;5.70;99.90;;;;;;5067770;28;20666;-69
2021/12/24 05:38:36;;;;;;;0.10;0.10;;;5.70;99.90;;;;;;5067243;28;20628;-69
2021/12/24 05:41:04;;;;;;;0.10;0.10;;;5.70;99.90;;;;;;5063016;28;20743;-70
2021/12/24 05:43:31;;;;;;;0.10;0.10;;;5.70;99.90;;;;;;5063350;28;20629;-69
2021/12/24 05:45:58;;;;;;;0.10;0.10;;;5.70;99.90;;;;;;5080545;28;20629;-69
2021/12/24 05:48:29;;;;;;;0.10;0.10;;;5.70;99.90;;;;;;5059970;28;20621;-70
2021/12/24 05:51:05;;;;;;;0.10;0.10;;;5.80;99.90;;;;;;5065096;28;20637;-69
2021/12/24 05:53:53;;;;;;;0.10;0.10;;;5.80;99.90;;;;;;5055069;28;20637;-69
2021/12/24 05:56:22;;;;;;;0.00;0.00;;;5.80;99.90;;;;;;5059696;28;20633;-69
2021/12/24 05:58:58;;;;;;;0.10;0.10;;;5.80;99.90;;;;;;5062396;28;20628;-69
2021/12/24 06:01:25;;;;;;;0.10;0.10;;;5.80;99.90;;;;;;5061978;28;20656;-69
2021/12/24 06:03:53;;;;;;;0.10;0.10;;;5.80;99.90;;;;;;5065796;28;20615;-69
2021/12/24 06:06:20;;;;;;;0.10;0.10;;;5.80;99.90;;;;;;5070681;28;20635;-69
2021/12/24 06:08:47;;;;;;;0.10;0.10;;;5.90;99.90;;;;;;5063849;28;20632;-69
2021/12/24 06:11:14;;;;;;;0.10;0.10;;;5.80;99.90;;;;;;5066544;28;20643;-69
2021/12/24 06:13:41;;;;;;;0.10;0.10;;;5.90;99.90;;;;;;5058607;28;20628;-69
2021/12/24 06:16:10;;;;;;;0.10;0.10;;;5.90;99.90;;;;;;5063847;28;20673;-69
2021/12/24 06:18:39;;;;;;;0.10;0.10;;;5.90;99.90;;;;;;5080120;28;20620;-69
2021/12/24 06:21:08;;;;;;;0.10;0.10;;;5.90;99.90;;;;;;5062116;28;20662;-69
2021/12/24 06:23:38;;;;;;;0.10;0.10;;;6.00;99.90;;;;;;5058136;28;20632;-69
2021/12/24 06:26:06;;;;;;;0.00;0.00;;;6.00;99.90;;;;;;5064131;28;20694;-70
2021/12/24 06:28:33;;;;;;;0.10;0.10;;;6.00;99.90;;;;;;5061359;28;20640;-69
2021/12/24 06:31:01;;;;;;;0.10;0.10;;;6.00;99.90;;;;;;5061930;28;20648;-70
2021/12/24 06:33:28;;;;;;;0.10;0.10;;;6.00;99.90;;;;;;5071071;28;20624;-69
2021/12/24 06:35:57;;;;;;;0.10;0.10;;;6.00;99.90;;;;;;5059612;28;20668;-70
2021/12/24 06:38:25;;;;;;;0.10;0.10;;;6.10;99.90;;;;;;5070085;28;20647;-70
2021/12/24 06:40:53;;;;;;;0.10;0.10;;;6.10;99.90;;;;;;5068156;28;20722;-70
2021/12/24 06:43:20;;;;;;;0.10;0.10;;;6.10;99.90;;;;;;5066910;28;20623;-70
2021/12/24 06:45:49;;;;;;;0.10;0.10;;;6.10;99.90;;;;;;5060213;28;20621;-70
2021/12/24 06:48:16;;;;;;;0.10;0.10;;;6.20;99.90;;;;;;5058611;28;21256;-70
2021/12/24 06:50:43;;;;;;;0.10;0.10;;;6.20;99.90;;;;;;5061040;28;20680;-70
2021/12/24 06:53:10;;;;;;;0.10;0.10;;;6.20;99.90;;;;;;5060026;28;20633;-69
2021/12/24 06:55:40;;;;;;;0.10;0.10;;;6.20;99.90;;;;;;5057753;28;20661;-69
2021/12/24 06:58:08;;;;;;;0.10;0.10;;;6.20;99.90;;;;;;5059607;28;20639;-69
2021/12/24 07:00:36;;;;;;;0.10;0.10;;;6.20;99.90;;;;;;5062986;28;20659;-69
2021/12/24 07:03:06;;;;;;;0.10;0.10;;;6.20;99.90;;;;;;5061018;28;20678;-69
2021/12/24 07:05:33;;;;;;;0.10;0.10;;;6.30;99.90;;;;;;5067297;28;20604;-69
2021/12/24 07:08:00;;;;;;;0.10;0.10;;;6.30;99.90;;;;;;5058686;28;20705;-70
2021/12/24 07:10:28;;;;;;;0.00;0.00;;;6.30;99.90;;;;;;5063914;28;20663;-68
2021/12/24 07:12:56;;;;;;;0.03;0.03;;;6.30;99.90;;;;;;5063149;28;20621;-70
2021/12/24 07:15:23;;;;;;;0.10;0.10;;;6.40;99.90;;;;;;5058315;28;20664;-70
2021/12/24 07:17:50;;;;;;;0.10;0.10;;;6.40;99.90;;;;;;5075878;28;20607;-73
2021/12/24 07:20:17;;;;;;;0.10;0.10;;;6.40;99.90;;;;;;5067476;28;20644;-69
2021/12/24 07:22:44;;;;;;;0.10;0.10;;;6.40;99.90;;;;;;5073103;28;20698;-71
2021/12/24 07:25:12;;;;;;;0.10;0.10;;;6.30;99.90;;;;;;5058406;28;21273;-70
2021/12/24 07:27:39;;;;;;;0.00;0.00;;;6.50;99.90;;;;;;5074175;28;21226;-72
2021/12/24 07:30:11;;;;;;;0.10;0.10;;;6.50;99.90;;;;;;5068981;28;21273;-71
2021/12/24 07:32:38;;;;;;;0.10;0.10;;;6.50;99.90;;;;;;5059429;28;20723;-72
2021/12/24 07:35:06;;;;;;;0.10;0.10;;;6.50;99.90;;;;;;5060980;28;20741;-72
2021/12/24 07:37:33;;;;;;;0.10;0.10;;;6.50;99.90;;;;;;5065376;28;20690;-74
2021/12/24 07:40:02;;;;;;;0.10;0.10;;;6.60;99.90;;;;;;5060378;28;21051;-70
2021/12/24 07:42:29;;;;;;;0.00;0.00;;;6.60;99.90;;;;;;5059174;28;20644;-72
2021/12/24 07:44:56;;;;;;;0.10;0.10;;;6.60;99.90;;;;;;5074545;28;20610;-73
2021/12/24 07:47:32;;;;;;;0.10;0.10;;;6.60;99.90;;;;;;5075422;28;20611;-71
2021/12/24 07:50:03;;;;;;;0.10;0.10;;;6.60;99.90;;;;;;5080299;28;21385;-74
2021/12/24 07:52:29;;;;;;;0.10;0.10;;;;;;;;;;5077167;28;20728;-74
2021/12/24 07:54:56;;;;;;;0.10;0.10;;;6.70;99.90;;;;;;5075706;28;20640;-71
2021/12/24 07:57:25;;;;;;;0.10;0.10;;;6.70;99.90;;;;;;5077056;28;20743;-74
2021/12/24 07:59:52;;;;;;;0.10;0.10;;;6.70;99.90;;;;;;5067515;28;20672;-75
2021/12/24 08:02:25;;;;;;;0.10;0.10;;;6.80;99.90;;;;;;5067680;28;21050;-70
2021/12/24 08:04:54;;;;;;;0.10;0.10;;;6.80;99.90;;;;;;5065711;28;20643;-71
2021/12/24 08:07:21;;;;;;;0.10;0.10;;;6.90;99.90;;;;;;5080996;28;20624;-73
2021/12/24 08:09:48;;;;;;;0.10;0.10;;;6.90;99.90;;;;;;5065922;28;20756;-73
2021/12/24 08:12:15;;;;;;;0.10;0.10;;;7.00;99.90;;;;;;5068235;28;20638;-72
2021/12/24 08:14:42;;;;;;;0.00;0.00;;;7.00;99.90;;;;;;5077771;28;20648;-75
2021/12/24 08:17:10;;;;;;;0.10;0.10;;;7.10;99.90;;;;;;5065508;28;20627;-73
2021/12/24 08:19:38;;;;;;;0.10;0.10;;;7.10;99.90;;;;;;5065087;28;20722;-72
2021/12/24 08:22:07;;;;;;;0.10;0.10;;;7.10;99.90;;;;;;5072477;28;20631;-71
2021/12/24 08:24:35;;;;;;;0.10;0.10;;;7.20;99.90;;;;;;5072841;28;20649;-71
2021/12/24 08:27:02;;;;;;;0.10;0.10;;;7.20;99.90;;;;;;5078390;28;20690;-71
2021/12/24 08:29:29;;;;;;;0.10;0.10;;;;;;;;;;5071202;28;20657;-71
2021/12/24 08:31:56;;;;;;;0.10;0.10;;;;;;;;;;5077040;28;20740;-72
2021/12/24 08:34:24;;;;;;;0.10;0.10;;;;;;;;;;5067536;28;20624;-71
2021/12/24 08:36:52;;;;;;;0.00;0.00;;;;;;;;;;5069244;28;20722;-71
2021/12/24 08:39:22;;;;;;;0.00;0.00;;;7.60;99.90;;;;;;5069580;28;20614;-69
2021/12/24 08:41:54;;;;;;;0.10;0.10;;;7.40;99.90;;;;;;5072186;28;20650;-74
2021/12/24 08:44:22;;;;;;;0.10;0.10;;;7.50;99.90;;;;;;5077957;28;20652;-71
2021/12/24 08:46:50;;;;;;;0.10;0.10;;;7.50;99.90;;;;;;5071228;28;20620;-72
2021/12/24 08:49:20;;;;;;;0.10;0.10;;;;;;;;;;5069465;28;20635;-73
2021/12/24 08:51:48;;;;;;;0.10;0.10;;;;;;;;;;5063100;28;20746;-72
2021/12/24 08:54:15;;;;;;;0.10;0.10;;;;;;;;;;5062890;28;20702;-76
2021/12/24 08:56:44;;;;;;;0.10;0.10;;;;;;;;;;5070534;28;20657;-73
2021/12/24 08:59:11;;;;;;;0.10;0.10;;;;;;;;;;5065225;28;20664;-74
2021/12/24 09:01:42;;;;;;;0.10;0.10;;;;;;;;;;5077254;28;20678;-77
2021/12/24 09:04:09;;;;;;;0.10;0.10;;;;;;;;;;5074499;28;20715;-74
2021/12/24 09:06:37;;;;;;;0.10;0.10;;;;;;;;;;5075154;28;20610;-73
2021/12/24 09:09:06;;;;;;;0.10;0.10;;;;;;;;;;5065104;28;20625;-71
2021/12/24 09:11:33;;;;;;;0.10;0.10;;;;;;;;;;5065500;28;20750;-71
2021/12/24 09:14:02;;;;;;;0.10;0.10;;;;;;;;;;5060177;28;20723;-71
2021/12/24 09:16:30;;;;;;;0.10;0.10;;;;;;;;;;5077182;28;20663;-70
2021/12/24 09:19:02;;;;;;;0.10;0.10;;;;;;;;;;5064326;28;20621;-70
2021/12/24 09:21:30;;;;;;;0.10;0.10;;;;;;;;;;5062095;28;20657;-70
2021/12/24 09:23:58;;;;;;;0.10;0.10;;;;;;;;;;5064653;28;20643;-71
2021/12/24 09:26:28;;;;;;;0.10;0.10;;;;;;;;;;5061974;28;20644;-75
2021/12/24 09:28:56;;;;;;;0.00;0.00;;;;;;;;;;5077481;28;20672;-71
2021/12/24 09:31:24;;;;;;;0.00;0.00;;;;;;;;;;5071873;28;20643;-70
2021/12/24 09:33:51;;;;;;;0.10;0.10;;;;;;;;;;5064470;28;20632;-73
2021/12/24 09:36:24;;;;;;;0.10;0.10;;;;;;;;;;5063804;28;20656;-71
2021/12/24 09:38:51;;;;;;;0.10;0.10;;;;;;;;;;5071825;28;20613;-77
2021/12/24 09:41:18;;;;;;;0.10;0.10;;;;;;;;;;5069543;28;20663;-76
2021/12/24 09:43:46;;;;;;;0.10;0.10;;;;;;;;;;5073180;28;20608;-73
2021/12/24 09:46:13;;;;;;;0.10;0.10;;;;;;;;;;5065809;28;20715;-72
2021/12/24 09:48:42;;;;;;;0.10;0.10;;;;;;;;;;5067683;28;20643;-73
2021/12/24 09:51:10;;;;;;;0.10;0.10;;;;;;;;;;5063848;28;20647;-75
2021/12/24 09:53:37;;;;;;;0.10;0.10;;;8.30;99.90;;;;;;5061064;28;20681;-72
2021/12/24 09:56:04;;;;;;;0.10;0.10;;;8.20;99.90;;;;;;5073047;28;20655;-72
2021/12/24 09:58:31;;;;;;;0.10;0.10;;;8.20;99.90;;;;;;5071534;28;20620;-71
2021/12/24 10:00:59;;;;;;;0.00;0.00;;;;;;;;;;5071960;28;20651;-72
2021/12/24 10:03:30;;;;;;;0.10;0.10;;;8.30;99.90;;;;;;5061840;28;20792;-69
2021/12/24 10:05:59;;;;;;;0.10;0.10;;;8.30;99.90;;;;;;5065253;28;20620;-71
2021/12/24 10:08:27;;;;;;;0.10;0.10;;;8.30;99.90;;;;;;5070562;28;20612;-70
2021/12/24 10:11:01;;;;;;;0.00;0.00;;;8.30;99.90;;;;;;5070807;28;20717;-70
2021/12/24 10:13:33;;;;;;;0.10;0.10;;;8.30;99.90;;;;;;5066249;28;20691;-72
2021/12/24 10:16:03;;;;;;;0.10;0.10;;;8.30;99.90;;;;;;5065157;28;21231;-71
2021/12/24 10:18:36;;;;;;;0.00;0.00;;;8.30;99.90;;;;;;5074379;28;20608;-72
2021/12/24 10:21:08;;;;;;;0.10;0.10;;;8.40;99.90;;;;;;5072564;28;20765;-72
2021/12/24 10:23:43;;;;;;;0.10;0.10;;;8.40;99.90;;;;;;5065031;28;20678;-77
2021/12/24 10:26:17;;;;;;;0.10;0.10;;;8.40;99.90;;;;;;5071017;28;20619;-72
2021/12/24 10:28:56;;;;;;;0.10;0.10;;;8.50;99.90;;;;;;5069747;28;20631;-73
2021/12/24 10:31:25;;;;;;;0.10;0.10;;;8.50;99.90;;;;;;5074398;28;20642;-72
2021/12/24 10:34:10;;;;;;;0.00;0.00;;;8.50;99.90;;;;;;5061671;28;20737;-72
2021/12/24 10:37:02;;;;;;;0.10;0.10;;;8.60;99.90;;;;;;5065934;28;20656;-72
2021/12/24 10:39:32;;;;;;;0.10;0.10;;;8.60;99.90;;;;;;5065000;28;20750;-71
2021/12/24 10:42:01;;;;;;;0.00;0.00;;;8.60;99.90;;;;;;5065859;28;20620;-71
2021/12/24 10:44:30;;;;;;;0.10;0.10;;;8.60;99.90;;;;;;5065467;28;20631;-71
2021/12/24 10:47:04;;;;;;;0.10;0.10;;;8.60;99.90;;;;;;5059121;28;20671;-71
2021/12/24 10:52:31;;;;;;;0.10;0.10;;;8.60;99.90;;;;;;5062133;28;20607;-74
2021/12/24 10:55:01;;;;;;;0.00;0.00;;;8.60;99.90;;;;;;5072677;28;20627;-72
2021/12/24 10:57:30;;;;;;;0.10;0.10;;;8.60;99.90;;;;;;5078713;28;20658;-70
2021/12/24 11:00:00;;;;;;;0.10;0.10;;;8.60;99.90;;;;;;5079500;28;20701;-72
2021/12/24 11:02:30;;;;;;;0.00;0.00;;;8.60;99.90;;;;;;5076421;28;20612;-70
2021/12/24 11:04:58;;;;;;;0.10;0.10;;;8.60;99.90;;;;;;5074149;28;20596;-72
2021/12/24 11:07:38;;;;;;;0.00;0.00;;;8.60;99.90;;;;;;5075099;28;20605;-72
2021/12/24 11:10:09;;;;;;;0.10;0.10;;;8.60;99.90;;;;;;5072946;28;20643;-69
2021/12/24 11:12:37;;;;;;;0.10;0.10;;;8.60;99.90;;;;;;5078189;28;20608;-69
2021/12/24 11:15:19;;;;;;;0.10;0.10;;;8.60;99.90;;;;;;5069694;28;20639;-69
2021/12/24 11:17:46;;;;;;;0.10;0.10;;;8.70;99.90;;;;;;5072877;28;20608;-68
2021/12/24 11:20:14;;;;;;;0.10;0.10;;;8.70;99.90;;;;;;5075703;28;20640;-68
2021/12/24 11:22:54;;;;;;;0.10;0.10;;;;;;;;;;5072023;28;20643;-68
2021/12/24 11:25:23;;;;;;;0.10;0.10;;;8.90;99.90;;;;;;5072779;28;20621;-68
2021/12/24 11:27:51;;;;;;;0.10;0.10;;;8.90;99.90;;;;;;5074168;28;20626;-69
2021/12/24 11:30:21;;;;;;;0.10;0.10;;;9.00;99.90;;;;;;5073236;28;20692;-68
2021/12/24 11:32:50;;;;;;;0.10;0.10;;;9.00;99.90;;;;;;5072916;28;20628;-69
2021/12/24 11:35:18;;;;;;;0.10;0.10;;;;;;;;;;5071046;28;20622;-69
2021/12/24 11:37:46;;;;;;;0.10;0.10;;;;;;;;;;5064749;28;20648;-68
2021/12/24 11:40:16;;;;;;;0.00;0.00;;;;;;;;;;5066778;28;20659;-68
2021/12/24 11:42:44;;;;;;;0.10;0.10;;;;;;;;;;5066428;28;20608;-70
2021/12/24 11:45:11;;;;;;;0.10;0.10;;;;;;;;;;5073225;28;20728;-71
2021/12/24 11:47:42;;;;;;;0.00;0.00;;;;;;;;;;5068343;28;20631;-72
2021/12/24 11:50:09;;;;;;;0.10;0.10;;;;;;;;;;5072794;28;20659;-72
2021/12/24 11:52:37;;;;;;;0.00;0.00;;;;;;;;;;5070496;28;20696;-72
2021/12/24 11:55:04;;;;;;;0.10;0.10;;;;;;;;;;5066153;28;21074;-71
2021/12/24 11:57:33;;;;;;;0.10;0.10;;;;;;;;;;5067972;28;20689;-72
2021/12/24 12:00:10;;;;;;;0.10;0.10;;;;;;;;;;5068087;28;20657;-71
2021/12/24 12:02:44;;;;;;;0.10;0.10;;;;;;;;;;5072135;28;20612;-72
2021/12/24 12:05:16;;;;;;;0.10;0.10;;;;;;;;;;5068070;28;20615;-72
2021/12/24 12:07:44;;;;;;;0.10;0.10;;;;;;;;;;5068711;28;20613;-73
2021/12/24 12:10:11;;;;;;;0.00;0.00;;;;;;;;;;5068013;28;20756;-72
2021/12/24 12:12:41;;;;;;;0.10;0.10;;;;;;;;;;5074460;28;20619;-71
2021/12/24 12:15:24;;;;;;;0.00;0.00;;;;;;;;;;5067279;28;20608;-74
2021/12/24 12:17:53;;;;;;;0.10;0.10;;;;;;;;;;5079934;28;20667;-74
2021/12/24 12:20:42;;;;;;;0.10;0.10;;;;;;;;;;5064749;28;20652;-74
2021/12/24 12:23:14;;;;;;;0.10;0.10;;;;;;;;;;5066211;28;20633;-73
2021/12/24 12:25:42;;;;;;;0.00;0.00;;;;;;;;;;5074123;28;20616;-73
2021/12/24 12:28:16;;;;;;;0.07;0.07;;;;;;;;;;5077488;28;20608;-72
2021/12/24 12:30:50;;;;;;;0.10;0.10;;;;;;;;;;5065605;28;20652;-75
2021/12/24 12:33:18;;;;;;;0.10;0.10;;;;;;;;;;5073394;28;20627;-72
2021/12/24 12:35:46;;;;;;;0.00;0.00;;;;;;;;;;5070822;28;20736;-72
2021/12/24 12:38:24;;;;;;;0.10;0.10;;;;;;;;;;5072753;28;20710;-72
2021/12/24 12:40:52;;;;;;;0.10;0.10;;;;;;;;;;5073742;28;20988;-73
2021/12/24 12:43:21;;;;;;;0.10;0.10;;;;;;;;;;5069778;28;20628;-75
2021/12/24 12:46:02;;;;;;;0.10;0.10;;;;;;;;;;5078716;28;20622;-75
2021/12/24 12:49:00;;;;;;;0.10;0.10;;;;;;;;;;5073453;28;20690;-75
2021/12/24 12:51:46;;;;;;;0.10;0.10;;;;;;;;;;5011336;28;20765;-74
2021/12/24 12:54:30;;;;;;;0.10;0.10;;;;;;;;;;5066644;28;20709;-74
2021/12/24 12:57:11;;;;;;;0.10;0.10;;;;;;;;;;5066692;28;20648;-76
2021/12/24 12:59:40;;;;;;;0.10;0.10;;;;;;;;;;5074969;28;20621;-73
2021/12/24 13:02:07;;;;;;;0.10;0.10;;;;;;;;;;5071565;28;20656;-75
2021/12/24 13:04:34;;;;;;;0.10;0.10;;;;;;;;;;5073821;28;20620;-74
2021/12/24 13:07:01;;;;;;;0.10;0.10;;;;;;;;;;5080630;28;20616;-73
2021/12/24 13:09:33;;;;;;;0.10;0.10;;;;;;;;;;5074841;28;20632;-73
2021/12/24 13:12:01;;;;;;;0.10;0.10;;;;;;;;;;5084180;28;20639;-73
2021/12/24 13:14:30;;;;;;;0.10;0.10;;;;;;;;;;5071864;28;20631;-72
2021/12/24 13:17:17;;;;;;;0.00;0.00;;;;;;;;;;5071595;28;20651;-75
2021/12/24 13:19:59;;;;;;;0.10;0.10;;;;;;;;;;5068335;28;20662;-71
2021/12/24 13:22:29;;;;;;;0.10;0.10;;;;;;;;;;5075957;28;20623;-72
2021/12/24 13:24:58;;;;;;;0.10;0.10;;;;;;;;;;5064217;28;20632;-72
2021/12/24 13:27:27;;;;;;;0.10;0.10;;;;;;;;;;5068482;28;20683;-71
2021/12/24 13:30:09;;;;;;;0.10;0.10;;;;;;;;;;5066616;28;20660;-72
2021/12/24 13:32:40;;;;;;;0.10;0.10;;;;;;;;;;5070575;28;20643;-71
2021/12/24 13:35:07;;;;;;;0.10;0.10;;;;;;;;;;5070684;28;20685;-71
2021/12/24 13:37:35;;;;;;;0.10;0.10;;;;;;;;;;5082691;28;20657;-73
2021/12/24 13:40:04;;;;;;;0.10;0.10;;;;;;;;;;5067279;28;20665;-71
2021/12/24 13:42:41;;;;;;;0.10;0.10;;;;;;;;;;5065666;28;20616;-71
2021/12/24 13:45:09;;;;;;;0.10;0.10;;;;;;;;;;5069140;28;20727;-73
2021/12/24 13:47:52;;;;;;;0.10;0.10;;;;;;;;;;5072969;28;20648;-70
2021/12/24 13:55:59;;;;;;;0.10;0.10;;;;;;;;;;5070884;28;20685;-71
2021/12/24 13:58:27;;;;;;;0.10;0.10;;;;;;;;;;5068540;28;21090;-72
2021/12/24 14:00:55;;;;;;;0.10;0.10;;;;;;;;;;5070542;28;20709;-72
2021/12/24 14:03:26;;;;;;;0.10;0.10;;;;;;;;;;5066678;28;21035;-73
2021/12/24 14:05:56;;;;;;;0.10;0.10;;;;;;;;;;5075474;28;20620;-73
2021/12/24 14:08:25;;;;;;;0.10;0.10;;;;;;;;;;5065110;28;21046;-73
2021/12/24 14:11:02;;;;;;;0.10;0.10;;;;;;;;;;5076862;28;20689;-72
2021/12/24 14:13:34;;;;;;;0.10;0.10;;;;;;;;;;5088191;28;20689;-76
2021/12/24 14:16:13;;;;;;;0.10;0.10;;;;;;;;;;5075032;28;20624;-77
2021/12/24 14:18:47;;;;;;;0.10;0.10;;;;;;;;;;5075255;28;20620;-75
2021/12/24 14:24:13;;;;;;;0.10;0.10;;;;;;;;;;5068181;28;20631;-75
2021/12/24 14:26:41;;;;;;;0.10;0.10;;;;;;;;;;5067682;28;21146;-75
2021/12/24 14:29:08;;;;;;;0.10;0.10;;;;;;;;;;5075150;28;20734;-76
2021/12/24 14:31:49;;;;;;;0.10;0.10;;;;;;;;;;5070509;28;20663;-71
2021/12/24 14:34:28;;;;;;;0.10;0.10;;;;;;;;;;5055027;28;20745;-75
2021/12/24 14:36:58;;;;;;;0.10;0.10;;;;;;;;;;4987943;28;178428;-76
2021/12/24 14:39:26;;;;;;;0.20;0.20;;;;;;;;;;4998150;28;20627;-76
2021/12/24 14:42:26;;;;;;;0.10;0.10;;;;;;;;;;4999485;28;21379;-74
2021/12/24 14:44:55;;;;;;;0.10;0.10;;;;;;;;;;4940038;28;20682;-75
2021/12/24 14:47:25;;;;;;;0.10;0.10;;;;;;;;;;4939767;28;20632;-76
2021/12/24 14:49:59;;;;;;;0.10;0.10;;;;;;;;;;4970862;28;20693;-73
2021/12/24 14:52:28;;;;;;;0.10;0.10;;;;;;;;;;5003791;28;20627;-75
2021/12/24 14:55:09;;;;;;;0.10;0.10;;;;;;;;;;4996787;28;20623;-75
2021/12/24 14:57:44;;;;;;;0.10;0.10;;;;;;;;;;5000602;28;20745;-74
2021/12/24 15:00:13;;;;;;;0.10;0.10;;;;;;;;;;5002624;28;20658;-75
2021/12/24 15:02:41;;;;;;;0.10;0.10;;;;;;;;;;5001035;28;20738;-74
2021/12/24 15:05:09;;;;;;;0.10;0.10;;;;;;;;;;5003047;28;20617;-76
2021/12/24 15:07:37;;;;;;;0.10;0.10;;;;;;;;;;4996118;28;20624;-71
2021/12/24 15:10:09;;;;;;;0.10;0.10;;;;;;;;;;5001055;28;20659;-74
2021/12/24 15:12:41;;;;;;;0.10;0.10;;;;;;;;;;5003140;28;20612;-74
2021/12/24 15:15:08;;;;;;;0.10;0.10;;;;;;;;;;4998663;28;20608;-73
2021/12/24 15:17:39;;;;;;;0.10;0.10;;;;;;;;;;5000206;28;20662;-73
2021/12/24 15:20:07;;;;;;;0.10;0.10;;;;;;;;;;4999525;28;20651;-74